Time;durP1;ratioP1;P1;durP2;ratioP2;P2;SDS_P1;SDS_P2;PMS_P1;PMS_P2;Temp;Humidity;BMP_temperature;BMP_pressure;BME280_temperature;BME280_humidity;BME280_pressure;Samples;Min_cycle;Max_cycle;Signal;HPM_P1;HPM_P2
2022/08/22 00:01:18;;;;;;;2.72;0.35;;;;;;;10.47;100.00;100859.94;5020760;28;20506;-50
2022/08/22 00:04:04;;;;;;;1.98;0.68;;;;;;;10.38;100.00;100865.50;5027673;28;20379;-55
2022/08/22 00:07:15;;;;;;;1.95;0.73;;;;;;;10.30;100.00;100860.25;5016538;28;20141;-53
2022/08/22 00:09:51;;;;;;;3.65;0.45;;;;;;;10.23;100.00;100860.16;5042080;28;20040;-55
2022/08/22 00:12:42;;;;;;;6.18;0.95;;;;;;;10.22;100.00;100861.97;5018928;28;20053;-51
2022/08/22 00:15:16;;;;;;;5.05;1.58;;;;;;;10.17;100.00;100863.50;5022012;28;20025;-55
2022/08/22 00:17:47;;;;;;;4.45;0.55;;;;;;;10.10;100.00;100868.69;5027609;28;20422;-49
2022/08/22 00:20:21;;;;;;;2.30;0.77;;;;;;;10.02;100.00;100864.28;5024821;28;20029;-52
2022/08/22 00:23:20;;;;;;;3.05;0.57;;;;;;;10.02;100.00;100859.00;5029629;28;20048;-52
2022/08/22 00:26:14;;;;;;;3.72;0.30;;;;;;;10.03;100.00;100863.28;5029318;28;20291;-52
2022/08/22 00:28:45;;;;;;;7.07;1.10;;;;;;;10.04;100.00;100866.75;5022595;28;20116;-51
2022/08/22 00:31:20;;;;;;;9.50;1.13;;;;;;;10.03;100.00;100850.03;5022191;28;20040;-50
2022/08/22 00:33:54;;;;;;;0.98;0.60;;;;;;;10.03;100.00;100855.31;5031366;28;20032;-53
2022/08/22 00:36:46;;;;;;;1.63;0.30;;;;;;;10.01;100.00;100846.72;5018777;28;20057;-49
2022/08/22 00:39:17;;;;;;;1.50;0.55;;;;;;;9.95;100.00;100841.34;5022942;28;20049;-51
2022/08/22 00:41:55;;;;;;;4.07;0.32;;;;;;;9.88;100.00;100837.75;5024734;28;20045;-48
2022/08/22 00:44:51;;;;;;;3.97;0.82;;;;;;;9.81;100.00;100837.66;5032117;28;20036;-50
2022/08/22 00:47:25;;;;;;;6.97;2.13;;;;;;;9.81;100.00;100838.47;5030102;28;20453;-51
2022/08/22 00:49:56;;;;;;;6.00;1.38;;;;;;;9.88;100.00;100835.09;5026751;28;20135;-52
2022/08/22 00:52:24;;;;;;;4.20;0.68;;;;;;;9.90;100.00;100827.81;5024908;28;20046;-55
2022/08/22 00:55:07;;;;;;;4.70;1.52;;;;;;;9.88;100.00;100832.44;5021562;28;20041;-55
2022/08/22 00:57:55;;;;;;;0.60;0.32;;;;;;;9.80;100.00;100834.16;5027587;28;20025;-55
2022/08/22 01:00:25;;;;;;;2.70;1.17;;;;;;;9.73;100.00;100835.88;5023274;28;20363;-54
2022/08/22 01:03:17;;;;;;;5.00;0.88;;;;;;;9.66;100.00;100831.47;5016961;28;20441;-52
2022/08/22 01:05:49;;;;;;;;;;;;;;;9.65;100.00;100841.22;5018923;28;20355;-56
2022/08/22 01:08:37;;;;;;;2.65;0.30;;;;;;;9.64;100.00;100844.88;5017048;28;19960;-52
2022/08/22 01:11:20;;;;;;;1.25;0.50;;;;;;;9.64;100.00;100844.06;5020525;28;20066;-52
2022/08/22 01:13:54;;;;;;;0.93;0.38;;;;;;;9.67;100.00;100827.81;5015886;28;20049;-49
2022/08/22 01:16:31;;;;;;;5.78;1.65;;;;;;;9.73;100.00;100835.03;5014452;28;20133;-51
2022/08/22 01:19:25;;;;;;;5.18;1.63;;;;;;;9.72;100.00;100842.16;5027571;28;20057;-55
2022/08/22 01:22:06;;;;;;;1.60;0.45;;;;;;;9.71;100.00;100842.34;5026683;28;20033;-50
2022/08/22 01:25:19;;;;;;;2.95;1.40;;;;;;;9.69;100.00;100842.53;5016060;28;20044;-52
2022/08/22 01:28:02;;;;;;;3.90;0.82;;;;;;;9.69;100.00;100854.94;5013586;28;20033;-56
2022/08/22 01:30:51;;;;;;;1.17;0.40;;;;;;;9.73;100.00;100865.00;5026781;28;20189;-55
2022/08/22 01:33:51;;;;;;;1.80;0.40;;;;;;;9.74;100.00;100863.19;5026676;28;20192;-49
2022/08/22 01:36:34;;;;;;;1.63;0.17;;;;;;;9.72;100.00;100867.81;5019353;28;20036;-50
2022/08/22 01:39:09;;;;;;;2.22;1.60;;;;;;;9.67;100.00;100865.69;5034994;28;20168;-52
2022/08/22 01:41:52;;;;;;;2.38;0.85;;;;;;;9.58;100.00;100857.00;5020182;28;20037;-55
2022/08/22 01:44:38;;;;;;;2.58;0.20;;;;;;;9.51;100.00;100857.88;5018813;28;20112;-52
2022/08/22 01:47:16;;;;;;;1.85;1.13;;;;;;;9.47;100.00;100849.44;5021781;28;20044;-52
2022/08/22 01:49:56;;;;;;;3.63;0.55;;;;;;;9.41;100.00;100849.31;5025517;28;20458;-50
2022/08/22 01:52:28;;;;;;;0.43;0.43;;;;;;;9.35;100.00;100829.69;5022235;28;20125;-55
2022/08/22 01:55:00;;;;;;;1.33;0.55;;;;;;;9.36;100.00;100826.84;5019632;28;20526;-55
2022/08/22 01:57:26;;;;;;;2.35;0.73;;;;;;;9.38;100.00;100834.63;5022401;28;20033;-52
2022/08/22 01:59:56;;;;;;;6.20;0.90;;;;;;;9.42;100.00;100819.19;5017604;28;20439;-53
2022/08/22 02:02:55;;;;;;;0.77;0.77;;;;;;;9.42;100.00;100808.59;5024736;28;20037;-50
2022/08/22 02:06:12;;;;;;;4.38;0.52;;;;;;;9.39;100.00;100809.78;5020826;28;20030;-51
2022/08/22 02:08:43;;;;;;;10.50;1.48;;;;;;;9.37;100.00;100812.63;5025487;28;20037;-52
2022/08/22 02:11:12;;;;;;;0.55;0.32;;;;;;;9.36;100.00;100805.66;5024657;28;20128;-52
2022/08/22 02:13:44;;;;;;;2.75;0.20;;;;;;;9.35;100.00;100808.50;5024834;28;20478;-54
2022/08/22 02:16:19;;;;;;;4.72;0.45;;;;;;;9.33;100.00;100813.97;5034131;28;20536;-53
2022/08/22 02:19:04;;;;;;;0.75;0.43;;;;;;;9.30;100.00;100808.19;5025057;28;20026;-54
2022/08/22 02:21:54;;;;;;;4.40;1.30;;;;;;;9.27;100.00;100808.56;5020212;28;20029;-51
2022/08/22 02:24:32;;;;;;;3.55;0.57;;;;;;;9.27;100.00;100811.19;5030627;28;20041;-54
2022/08/22 02:27:20;;;;;;;2.30;0.30;;;;;;;9.24;100.00;100817.66;5035393;28;20482;-52
2022/08/22 02:29:57;;;;;;;2.13;1.42;;;;;;;9.25;100.00;100816.66;5032794;28;20053;-49
2022/08/22 02:32:44;;;;;;;0.75;0.40;;;;;;;9.28;100.00;100805.72;5026306;28;20025;-54
2022/08/22 02:35:22;;;;;;;2.47;0.65;;;;;;;9.29;100.00;100802.09;5029005;28;20033;-55
2022/08/22 02:38:21;;;;;;;2.60;1.20;;;;;;;9.25;100.00;100811.38;5028513;28;20045;-52
2022/08/22 02:41:02;;;;;;;0.95;0.30;;;;;;;9.26;100.00;100817.47;5033341;28;20458;-52
2022/08/22 02:43:38;;;;;;;4.15;1.15;;;;;;;9.27;100.00;100814.66;5030871;28;20446;-50
2022/08/22 02:46:22;;;;;;;0.93;0.43;;;;;;;9.28;100.00;100818.13;5027770;28;20037;-50
2022/08/22 02:49:29;;;;;;;2.03;0.75;;;;;;;9.26;100.00;100815.66;5024595;28;20033;-55
2022/08/22 02:52:03;;;;;;;2.65;0.57;;;;;;;9.21;100.00;100806.59;5027218;28;20389;-54
2022/08/22 02:54:52;;;;;;;1.77;0.40;;;;;;;9.17;100.00;100804.28;5029982;28;20112;-51
2022/08/22 02:57:28;;;;;;;6.18;1.20;;;;;;;9.17;100.00;100806.94;5026272;28;20038;-53
2022/08/22 02:59:57;;;;;;;1.08;0.13;;;;;;;9.15;100.00;100808.94;5026744;28;20053;-53
2022/08/22 03:02:26;;;;;;;0.98;0.55;;;;;;;9.11;100.00;100812.09;5023682;28;20083;-55
2022/08/22 03:04:56;;;;;;;1.08;0.82;;;;;;;9.08;100.00;100802.69;5023979;28;20055;-53
2022/08/22 03:07:39;;;;;;;2.30;0.65;;;;;;;9.07;100.00;100789.66;5023840;28;20462;-54
2022/08/22 03:10:35;;;;;;;3.55;1.45;;;;;;;9.06;100.00;100787.97;5023954;28;20026;-50
2022/08/22 03:13:15;;;;;;;3.42;0.38;;;;;;;9.08;100.00;100792.09;5024057;28;20049;-52
2022/08/22 03:15:59;;;;;;;2.45;0.20;;;;;;;9.05;100.00;100778.41;5028996;28;20025;-51
2022/08/22 03:18:26;;;;;;;5.63;0.50;;;;;;;9.02;100.00;100786.69;5028496;28;20044;-54
2022/08/22 03:21:08;;;;;;;0.40;0.10;;;;;;;8.99;100.00;100792.34;5022636;28;20037;-53
2022/08/22 03:23:41;;;;;;;2.15;0.32;;;;;;;8.95;100.00;100800.59;5026513;28;20376;-53
2022/08/22 03:26:35;;;;;;;0.93;0.20;;;;;;;8.93;100.00;100799.97;5021368;28;20025;-53
2022/08/22 03:29:10;;;;;;;0.75;0.45;;;;;;;8.93;100.00;100793.81;5021431;28;20037;-49
2022/08/22 03:31:36;;;;;;;1.15;0.32;;;;;;;8.95;100.00;100792.66;5019261;28;20025;-53
2022/08/22 03:34:28;;;;;;;6.50;0.45;;;;;;;8.93;100.00;100789.38;5023341;28;20136;-55
2022/08/22 03:37:04;;;;;;;;;;;;;;;8.86;100.00;100792.88;5027051;28;20668;-52
2022/08/22 03:39:48;;;;;;;2.90;0.22;;;;;;;8.76;100.00;100793.09;5030767;28;20301;-55
2022/08/22 03:42:41;;;;;;;1.23;0.40;;;;;;;8.71;100.00;100795.41;5026456;28;20075;-53
2022/08/22 03:45:54;;;;;;;5.47;0.50;;;;;;;8.63;100.00;100806.03;5024375;28;20036;-51
2022/08/22 03:48:34;;;;;;;3.28;1.00;;;;;;;8.59;100.00;100812.63;5013831;28;20399;-52
2022/08/22 03:51:18;;;;;;;2.30;0.63;;;;;;;8.58;100.00;100811.00;5019935;28;20094;-55
2022/08/22 03:54:20;;;;;;;2.10;0.47;;;;;;;8.57;100.00;100811.97;5021172;28;20498;-52
2022/08/22 03:57:07;;;;;;;3.53;0.55;;;;;;;8.57;100.00;100812.81;5023987;28;20057;-49
2022/08/22 03:59:54;;;;;;;3.20;0.20;;;;;;;8.55;100.00;100814.00;5023861;28;20888;-53
2022/08/22 04:02:38;;;;;;;2.40;0.20;;;;;;;8.57;100.00;100817.25;5020852;28;20025;-53
2022/08/22 04:05:16;;;;;;;1.10;0.35;;;;;;;8.55;100.00;100812.16;5027344;28;20378;-53
2022/08/22 04:07:53;;;;;;;3.28;0.52;;;;;;;8.50;100.00;100814.50;5025562;28;20029;-52
2022/08/22 04:10:37;;;;;;;2.75;0.22;;;;;;;8.42;100.00;100822.44;5023512;28;20108;-52
2022/08/22 04:13:39;;;;;;;1.33;0.15;;;;;;;8.35;100.00;100818.78;5021450;28;20100;-52
2022/08/22 04:16:27;;;;;;;2.33;0.35;;;;;;;8.27;100.00;100815.16;5027013;28;20072;-54
2022/08/22 04:19:27;;;;;;;1.80;0.40;;;;;;;8.24;100.00;100810.22;5018477;28;20156;-54
2022/08/22 04:22:20;;;;;;;3.03;1.25;;;;;;;8.25;100.00;100809.22;5024886;28;20473;-52
2022/08/22 04:24:58;;;;;;;3.97;0.40;;;;;;;8.24;100.00;100815.50;5022608;28;20111;-48
2022/08/22 04:27:42;;;;;;;2.17;1.00;;;;;;;8.22;100.00;100837.78;5020564;28;20030;-52
2022/08/22 04:30:21;;;;;;;2.30;0.85;;;;;;;8.19;100.00;100832.84;5027033;28;20025;-48
2022/08/22 04:33:00;;;;;;;2.22;0.32;;;;;;;8.13;100.00;100849.34;5023404;28;20132;-51
2022/08/22 04:35:43;;;;;;;2.83;0.15;;;;;;;8.07;100.00;100856.94;5024649;28;20022;-50
2022/08/22 04:38:15;;;;;;;1.30;0.43;;;;;;;8.04;100.00;100867.81;5021617;28;20505;-48
2022/08/22 04:40:49;;;;;;;1.25;0.20;;;;;;;7.99;100.00;100859.56;5028413;28;20028;-54
2022/08/22 04:43:33;;;;;;;5.72;0.88;;;;;;;7.96;100.00;100867.84;5030975;28;20068;-48
2022/08/22 04:46:24;;;;;;;1.50;0.13;;;;;;;7.98;100.00;100863.22;5027094;28;20155;-52
2022/08/22 04:48:55;;;;;;;3.10;0.52;;;;;;;7.96;100.00;100856.44;5021317;28;20041;-52
2022/08/22 04:51:32;;;;;;;3.15;0.30;;;;;;;7.91;100.00;100848.19;5022752;28;20044;-51
2022/08/22 04:54:29;;;;;;;2.70;0.20;;;;;;;7.86;100.00;100848.69;5027448;28;20044;-52
2022/08/22 04:57:24;;;;;;;3.90;1.00;;;;;;;7.84;100.00;100840.91;5024372;28;20036;-51
2022/08/22 04:59:50;;;;;;;2.08;0.45;;;;;;;7.83;100.00;100839.28;5023518;28;20475;-49
2022/08/22 05:02:26;;;;;;;1.42;0.20;;;;;;;7.85;100.00;100831.19;5024350;28;20105;-53
2022/08/22 05:05:02;;;;;;;2.13;0.93;;;;;;;7.88;100.00;100830.88;5024597;28;20057;-52
2022/08/22 05:07:35;;;;;;;1.05;0.40;;;;;;;7.91;100.00;100837.63;5020957;28;20026;-51
2022/08/22 05:10:16;;;;;;;1.70;1.60;;;;;;;7.89;100.00;100826.41;5024257;28;20479;-48
2022/08/22 05:12:52;;;;;;;1.77;0.35;;;;;;;7.86;100.00;100823.09;5026908;28;20138;-51
2022/08/22 05:15:22;;;;;;;2.50;1.02;;;;;;;7.83;100.00;100827.91;5025200;28;20033;-55
2022/08/22 05:17:50;;;;;;;1.35;0.43;;;;;;;7.79;100.00;100835.31;5024997;28;20026;-53
2022/08/22 05:20:20;;;;;;;0.52;0.20;;;;;;;7.74;100.00;100826.22;5017376;28;20116;-50
2022/08/22 05:22:51;;;;;;;1.48;0.68;;;;;;;7.70;100.00;100828.38;5025828;28;20034;-52
2022/08/22 05:25:19;;;;;;;;;;;;;;;7.71;100.00;100834.47;5023423;28;20041;-53
2022/08/22 05:27:49;;;;;;;2.45;0.50;;;;;;;7.76;100.00;100840.09;5032458;28;19963;-50
2022/08/22 05:30:21;;;;;;;5.07;0.35;;;;;;;7.77;100.00;100844.38;5015772;28;20475;-50
2022/08/22 05:32:53;;;;;;;6.13;0.63;;;;;;;7.80;100.00;100854.63;5029740;28;20523;-53
2022/08/22 05:35:31;;;;;;;1.92;0.77;;;;;;;7.84;100.00;100845.38;5023074;28;20151;-53
2022/08/22 05:37:57;;;;;;;0.70;0.30;;;;;;;7.88;100.00;100846.72;5026149;28;20075;-50
2022/08/22 05:40:27;;;;;;;3.35;0.50;;;;;;;7.92;100.00;100840.09;5017946;28;20035;-51
2022/08/22 05:42:55;;;;;;;2.50;0.43;;;;;;;7.95;100.00;100841.56;5016470;28;20041;-51
2022/08/22 05:45:22;;;;;;;0.30;0.30;;;;;;;7.98;100.00;100833.34;5021774;28;20045;-52
2022/08/22 05:47:53;;;;;;;0.65;0.30;;;;;;;8.01;100.00;100827.72;5035548;28;20029;-51
2022/08/22 05:50:24;;;;;;;4.00;0.50;;;;;;;8.02;100.00;100826.72;5025149;28;20492;-51
2022/08/22 05:52:53;;;;;;;;;;;;;;;8.03;100.00;100833.69;5028366;28;20332;-50
2022/08/22 05:55:36;;;;;;;1.60;0.60;;;;;;;8.05;100.00;100836.97;5028198;28;19925;-51
2022/08/22 05:58:26;;;;;;;1.25;0.22;;;;;;;8.09;100.00;100833.00;5033360;28;20462;-50
2022/08/22 06:01:00;;;;;;;2.17;0.52;;;;;;;8.12;100.00;100837.13;5027344;28;20044;-50
2022/08/22 06:03:40;;;;;;;1.27;0.68;;;;;;;8.18;100.00;100839.09;5029067;28;20029;-55
2022/08/22 06:06:16;;;;;;;2.85;0.65;;;;;;;8.29;100.00;100834.31;5038557;28;20143;-53
2022/08/22 06:08:50;;;;;;;1.10;0.25;;;;;;;8.37;100.00;100824.72;5029428;28;20030;-54
2022/08/22 06:11:27;;;;;;;2.80;0.60;;;;;;;8.42;100.00;100820.63;5030939;28;20108;-53
2022/08/22 06:14:24;;;;;;;2.55;1.35;;;;;;;8.51;100.00;100813.47;5033961;28;20045;-52
2022/08/22 06:16:58;;;;;;;2.90;0.47;;;;;;;8.61;100.00;100802.72;5029867;28;20037;-50
2022/08/22 06:19:24;;;;;;;2.05;0.52;;;;;;;8.71;100.00;100809.47;5019700;28;20439;-55
2022/08/22 06:21:52;;;;;;;4.22;0.35;;;;;;;8.83;100.00;100798.50;5027070;28;20036;-52
2022/08/22 06:24:26;;;;;;;3.20;0.55;;;;;;;8.96;100.00;100793.50;5023919;28;20048;-53
2022/08/22 06:26:55;;;;;;;2.25;0.32;;;;;;;9.00;100.00;100794.78;5025287;28;20025;-52
2022/08/22 06:29:50;;;;;;;3.00;0.70;;;;;;;9.06;100.00;100795.91;5029366;28;20071;-53
2022/08/22 06:32:21;;;;;;;1.65;0.47;;;;;;;9.20;100.00;100795.19;5029772;28;20080;-51
2022/08/22 06:34:48;;;;;;;;;;;;;;;9.41;100.00;100796.38;5026251;28;20029;-53
2022/08/22 06:37:30;;;;;;;0.68;0.30;;;;;;;9.56;100.00;100807.88;5026597;28;20015;-51
2022/08/22 06:39:58;;;;;;;0.82;0.40;;;;;;;9.65;100.00;100804.16;5025970;28;20024;-54
2022/08/22 06:42:28;;;;;;;1.83;0.98;;;;;;;9.69;100.00;100800.16;5022165;28;20033;-53
2022/08/22 06:45:13;;;;;;;1.33;0.68;;;;;;;9.77;100.00;100800.09;5025052;28;20048;-52
2022/08/22 06:47:47;;;;;;;3.70;0.73;;;;;;;9.91;100.00;100798.47;5025180;28;20486;-50
2022/08/22 06:50:34;;;;;;;0.60;0.30;;;;;;;10.06;100.00;100798.50;5016737;28;20108;-52
2022/08/22 06:53:03;;;;;;;1.02;0.63;;;;;;;10.17;100.00;100792.78;5019306;28;20029;-53
2022/08/22 06:55:30;;;;;;;4.28;0.73;;;;;;;10.33;100.00;100793.66;5017285;28;20117;-55
2022/08/22 06:58:02;;;;;;;4.35;1.55;;;;;;;10.52;100.00;100784.34;5023185;28;20022;-53
2022/08/22 07:00:31;;;;;;;2.15;0.40;;;;;;;10.74;100.00;100778.13;5019726;28;20048;-54
2022/08/22 07:03:05;;;;;;;1.80;0.60;;;;;;;11.03;100.00;100785.19;5015523;28;20017;-53
2022/08/22 07:05:35;;;;;;;2.58;1.52;;;;;;;11.40;100.00;100786.00;5021181;28;20061;-51
2022/08/22 07:08:07;;;;;;;4.47;0.95;;;;;;;11.67;100.00;100780.94;5026360;28;20049;-52
2022/08/22 07:10:33;;;;;;;6.55;1.35;;;;;;;11.87;100.00;100773.97;5020211;28;20045;-52
2022/08/22 07:12:58;;;;;;;1.33;1.13;;;;;;;12.10;100.00;100768.44;5021204;28;20137;-49
2022/08/22 07:15:35;;;;;;;8.02;1.02;;;;;;;12.32;100.00;100773.72;5024713;28;20040;-52
2022/08/22 07:18:08;;;;;;;6.60;1.20;;;;;;;12.60;100.00;100786.97;5020485;28;20086;-50
2022/08/22 07:20:40;;;;;;;5.00;1.17;;;;;;;12.85;100.00;100782.75;5024262;28;20026;-51
2022/08/22 07:23:28;;;;;;;2.13;1.05;;;;;;;13.17;100.00;100795.59;5020311;28;20036;-52
2022/08/22 07:26:03;;;;;;;3.78;1.35;;;;;;;13.39;100.00;100804.28;5024788;28;20036;-54
2022/08/22 07:28:43;;;;;;;5.25;0.93;;;;;;;13.65;100.00;100800.81;5021787;28;20029;-54
2022/08/22 07:31:34;;;;;;;1.52;0.45;;;;;;;13.88;100.00;100803.91;5006468;28;20025;-55
2022/08/22 07:34:06;;;;;;;6.13;0.75;;;;;;;14.12;100.00;100796.31;4989881;28;20033;-49
2022/08/22 07:36:48;;;;;;;14.05;1.58;;;;;;;14.36;100.00;100790.34;5017234;28;20030;-55
2022/08/22 07:39:32;;;;;;;3.33;1.25;;;;;;;14.65;100.00;100782.91;5011971;28;20680;-55
2022/08/22 07:42:20;;;;;;;7.53;0.32;;;;;;;14.87;100.00;100778.13;5016905;28;20333;-51
2022/08/22 07:45:16;;;;;;;5.93;0.63;;;;;;;15.09;100.00;100773.28;5019139;28;20029;-56
2022/08/22 07:47:44;;;;;;;3.28;0.73;;;;;;;15.26;100.00;100762.94;5019483;28;20052;-49
2022/08/22 07:50:15;;;;;;;6.07;1.00;;;;;;;15.41;100.00;100758.09;5016450;28;20033;-51
2022/08/22 07:52:44;;;;;;;6.20;0.43;;;;;;;15.59;100.00;100746.66;5017999;28;20037;-55
2022/08/22 07:55:25;;;;;;;3.50;0.55;;;;;;;15.79;100.00;100735.00;5019577;28;20065;-50
2022/08/22 07:58:03;;;;;;;7.40;0.88;;;;;;;16.00;100.00;100733.78;5019480;28;20032;-54
2022/08/22 08:00:30;;;;;;;2.17;0.45;;;;;;;16.21;100.00;100737.88;5022530;28;20052;-53
2022/08/22 08:03:06;;;;;;;6.22;0.70;;;;;;;16.40;100.00;100733.38;5019409;28;20049;-54
2022/08/22 08:05:35;;;;;;;1.63;0.50;;;;;;;16.66;100.00;100719.69;5015207;28;20379;-51
2022/08/22 08:08:07;;;;;;;3.47;0.57;;;;;;;16.90;100.00;100715.25;5019778;28;20088;-53
2022/08/22 08:10:38;;;;;;;6.05;0.20;;;;;;;17.29;100.00;100712.25;5015669;28;20497;-49
2022/08/22 08:13:15;;;;;;;5.93;0.35;;;;;;;17.67;100.00;100712.66;5019241;28;20055;-54
2022/08/22 08:15:44;;;;;;;2.08;0.35;;;;;;;18.03;100.00;100705.44;5017517;28;20034;-56
2022/08/22 08:18:19;;;;;;;3.72;0.35;;;;;;;18.38;100.00;100699.22;5022531;28;20364;-53
2022/08/22 08:20:51;;;;;;;1.73;0.20;;;;;;;18.56;100.00;100690.19;5020187;28;20393;-56
2022/08/22 08:23:18;;;;;;;1.08;0.40;;;;;;;18.74;100.00;100673.03;5020022;28;20371;-56
2022/08/22 08:25:59;;;;;;;7.18;0.73;;;;;;;18.95;100.00;100666.22;5016030;28;20028;-56
2022/08/22 08:28:35;;;;;;;2.23;0.77;;;;;;;18.95;100.00;100658.16;5011265;28;20835;-51
2022/08/22 08:31:07;;;;;;;3.03;0.82;;;;;;;18.82;100.00;100661.97;4995336;28;20301;-54
2022/08/22 08:33:36;;;;;;;9.25;0.93;;;;;;;18.81;100.00;100665.69;4999665;28;20441;-55
2022/08/22 08:36:14;;;;;;;3.13;0.20;;;;;;;18.76;100.00;100662.09;4996435;28;20635;-48
2022/08/22 08:38:52;;;;;;;5.07;0.68;;;;;;;18.74;100.00;100659.63;4996815;28;20413;-54
2022/08/22 08:41:26;;;;;;;4.20;0.80;;;;;;;18.75;100.00;100661.28;4996872;28;20423;-49
2022/08/22 08:44:16;;;;;;;4.57;1.50;;;;;;;18.68;100.00;100645.28;4996700;28;21402;-53
2022/08/22 08:47:19;;;;;;;1.60;0.30;;;;;;;18.70;100.00;100648.53;4996178;28;20134;-52
2022/08/22 08:49:47;;;;;;;4.55;0.57;;;;;;;18.65;100.00;100655.69;4990838;28;20388;-48
2022/08/22 08:52:18;;;;;;;2.00;0.57;;;;;;;18.57;100.00;100656.09;4997915;28;20441;-53
2022/08/22 08:55:06;;;;;;;3.60;1.25;;;;;;;18.44;100.00;100655.31;4993743;28;20037;-56
2022/08/22 08:57:40;;;;;;;2.20;0.40;;;;;;;18.39;100.00;100668.63;5000218;28;20043;-54
2022/08/22 09:00:22;;;;;;;2.50;0.30;;;;;;;18.51;100.00;100663.25;4998271;28;20024;-52
2022/08/22 09:03:01;;;;;;;0.52;0.38;;;;;;;18.78;100.00;100666.19;4996783;28;20321;-54
2022/08/22 09:06:04;;;;;;;5.60;0.70;;;;;;;18.89;100.00;100651.84;5000253;28;20223;-53
2022/08/22 09:08:47;;;;;;;0.98;0.10;;;;;;;18.86;100.00;100655.03;4995750;28;20025;-49
2022/08/22 09:11:39;;;;;;;1.48;0.10;;;;;;;18.72;100.00;100653.69;4995392;28;20133;-53
2022/08/22 09:14:15;;;;;;;1.45;0.00;;;;;;;18.70;100.00;100664.66;4988621;28;20468;-55
2022/08/22 09:16:49;;;;;;;0.08;0.00;;;;;;;18.70;100.00;100667.34;4990276;28;20025;-51
2022/08/22 09:19:30;;;;;;;1.80;0.30;;;;;;;18.73;100.00;100658.81;5008462;28;20120;-56
2022/08/22 09:22:18;;;;;;;3.42;0.65;;;;;;;18.71;100.00;100654.72;5017957;28;20033;-54
2022/08/22 09:25:23;;;;;;;1.48;0.17;;;;;;;18.66;100.00;100649.25;5013976;28;20120;-49
2022/08/22 09:28:28;;;;;;;0.77;0.10;;;;;;;18.81;100.00;100648.75;5008541;28;20389;-54
2022/08/22 09:31:12;;;;;;;2.20;0.20;;;;;;;19.08;100.00;100646.28;5015789;28;20580;-56
2022/08/22 09:34:02;;;;;;;1.90;0.00;;;;;;;19.21;100.00;100642.47;5015860;28;20492;-53
2022/08/22 09:36:52;;;;;;;0.65;0.05;;;;;;;19.45;100.00;100649.28;5005454;28;20075;-56
2022/08/22 09:39:32;;;;;;;2.17;0.00;;;;;;;19.78;100.00;100647.66;5015186;28;20033;-52
2022/08/22 09:42:06;;;;;;;1.02;0.00;;;;;;;19.91;100.00;100646.47;5013800;28;20036;-53
2022/08/22 09:44:58;;;;;;;2.58;0.03;;;;;;;20.02;100.00;100642.84;5019080;28;20525;-56
2022/08/22 09:47:32;;;;;;;0.28;0.08;;;;;;;20.16;100.00;100640.59;5017251;28;20091;-55
2022/08/22 09:50:03;;;;;;;1.40;0.32;;;;;;;20.09;100.00;100643.50;5013854;28;20037;-50
2022/08/22 09:53:06;;;;;;;0.28;0.10;;;;;;;20.04;100.00;100641.53;5015401;28;20396;-57
2022/08/22 09:55:38;;;;;;;0.22;0.00;;;;;;;20.09;100.00;100643.50;5014065;28;20045;-53
2022/08/22 09:58:24;;;;;;;0.10;0.00;;;;;;;20.18;100.00;100650.03;5010159;28;20030;-54
2022/08/22 10:00:58;;;;;;;1.75;0.17;;;;;;;20.11;100.00;100645.91;5014024;28;20037;-52
2022/08/22 10:04:21;;;;;;;6.97;1.30;;;;;;;20.03;100.00;100649.84;5013058;28;20123;-56
2022/08/22 10:07:22;;;;;;;1.52;0.13;;;;;;;20.72;100.00;100645.81;5010560;28;20069;-53
2022/08/22 10:10:03;;;;;;;1.45;0.08;;;;;;;20.86;100.00;100638.97;5011048;28;20535;-53
2022/08/22 10:12:35;;;;;;;0.88;0.28;;;;;;;20.82;100.00;100635.16;5014010;28;20494;-53
2022/08/22 10:15:19;;;;;;;3.10;0.22;;;;;;;20.81;100.00;100626.25;5014476;28;20053;-55
2022/08/22 10:17:53;;;;;;;1.55;0.20;;;;;;;20.88;100.00;100629.56;5015621;28;20036;-50
2022/08/22 10:20:26;;;;;;;2.90;0.47;;;;;;;20.90;100.00;100622.00;5010045;28;20033;-53
2022/08/22 10:23:22;;;;;;;0.85;0.32;;;;;;;20.83;100.00;100621.44;5016020;28;20475;-50
2022/08/22 10:25:52;;;;;;;2.63;0.57;;;;;;;20.80;100.00;100610.34;5009835;28;20506;-55
2022/08/22 10:28:47;;;;;;;2.10;0.32;;;;;;;21.03;100.00;100606.50;5008356;28;20026;-56
2022/08/22 10:31:30;;;;;;;2.17;0.17;;;;;;;21.18;100.00;100611.19;5013042;28;20064;-56
2022/08/22 10:34:26;;;;;;;4.10;0.57;;;;;;;21.15;100.00;100612.53;5015422;28;20075;-53
2022/08/22 10:37:17;;;;;;;2.38;0.20;;;;;;;21.16;100.00;100610.63;5019637;28;20482;-51
2022/08/22 10:39:55;;;;;;;1.17;0.20;;;;;;;21.09;100.00;100616.22;5014531;28;20577;-51
2022/08/22 10:42:20;;;;;;;3.05;0.10;;;;;;;21.12;100.00;100616.56;5017331;28;20041;-54
2022/08/22 10:45:01;;;;;;;1.23;0.52;;;;;;;21.03;100.00;100615.38;5018492;28;20340;-52
2022/08/22 10:47:34;;;;;;;3.58;0.15;;;;;;;20.78;100.00;100624.09;5020552;28;20037;-55
2022/08/22 10:50:20;;;;;;;2.65;0.20;;;;;;;20.54;100.00;100622.72;5018509;28;20037;-55
2022/08/22 10:53:28;;;;;;;5.05;0.85;;;;;;;20.40;100.00;100616.94;5016038;28;20033;-53
2022/08/22 10:55:44;;;;;;;0.68;0.20;;;;;;;20.31;100.00;100629.19;5016283;28;20033;-55
2022/08/22 10:58:21;;;;;;;2.83;0.17;;;;;;;20.17;100.00;100632.28;5020107;28;20116;-51
2022/08/22 11:00:53;;;;;;;1.67;0.20;;;;;;;20.17;100.00;100629.59;5017108;28;20039;-52
2022/08/22 11:03:33;;;;;;;0.82;0.47;;;;;;;20.33;100.00;100632.47;5019739;28;20032;-53
2022/08/22 11:06:03;;;;;;;1.83;0.10;;;;;;;20.44;100.00;100634.19;5022076;28;21206;-51
2022/08/22 11:09:10;;;;;;;1.55;0.15;;;;;;;20.47;100.00;100641.75;5017403;28;20387;-54
2022/08/22 11:11:35;;;;;;;1.85;0.32;;;;;;;20.30;100.00;100632.97;5019306;28;20129;-54
2022/08/22 11:14:28;;;;;;;2.47;0.40;;;;;;;20.13;100.00;100639.22;5016714;28;20033;-54
2022/08/22 11:17:21;;;;;;;1.85;0.90;;;;;;;20.00;100.00;100631.50;5018803;28;20026;-51
2022/08/22 11:19:52;;;;;;;2.00;0.20;;;;;;;19.88;100.00;100630.81;5012680;28;20120;-47
2022/08/22 11:22:30;;;;;;;;;;;;;;;19.78;100.00;100637.69;5014911;28;20668;-48
2022/08/22 11:25:26;;;;;;;5.90;0.52;;;;;;;19.94;100.00;100629.84;5017368;28;20012;-50
2022/08/22 11:28:03;;;;;;;4.85;0.30;;;;;;;20.27;100.00;100616.25;5016499;28;20521;-50
2022/08/22 11:31:15;;;;;;;2.97;0.35;;;;;;;20.64;100.00;100612.88;5013793;28;20030;-55
2022/08/22 11:33:57;;;;;;;2.17;1.10;;;;;;;20.76;100.00;100593.06;4995963;28;20049;-55
2022/08/22 11:36:27;;;;;;;3.78;0.30;;;;;;;20.81;100.00;100579.66;5016605;28;20481;-55
2022/08/22 11:39:15;;;;;;;3.40;0.50;;;;;;;20.93;100.00;100585.66;5018012;28;20090;-54
2022/08/22 11:41:58;;;;;;;0.47;0.20;;;;;;;21.18;100.00;100581.53;5019678;28;20572;-54
2022/08/22 11:44:30;;;;;;;4.13;0.30;;;;;;;21.13;100.00;100588.50;5016933;28;20045;-51
2022/08/22 11:46:56;;;;;;;;;;;;;;;20.93;100.00;100591.03;5019714;28;20644;-52
2022/08/22 11:49:39;;;;;;;0.93;0.20;;;;;;;20.79;100.00;100585.28;5025769;28;20198;-56
2022/08/22 11:52:13;;;;;;;1.10;0.30;;;;;;;20.65;100.00;100582.19;5023562;28;20025;-52
2022/08/22 11:54:50;;;;;;;3.60;0.17;;;;;;;20.52;100.00;100579.06;5019293;28;20132;-52
2022/08/22 11:57:57;;;;;;;3.20;0.68;;;;;;;20.39;100.00;100588.34;5017893;28;20033;-53
2022/08/22 12:00:23;;;;;;;0.68;0.30;;;;;;;20.36;100.00;100580.78;5019456;28;20490;-50
2022/08/22 12:03:19;;;;;;;1.90;0.28;;;;;;;20.55;100.00;100582.09;5021427;28;20037;-55
2022/08/22 12:05:50;;;;;;;0.35;0.10;;;;;;;20.73;100.00;100561.22;5011209;28;20040;-55
2022/08/22 12:08:39;;;;;;;1.55;0.30;;;;;;;20.88;100.00;100564.88;5026173;28;20105;-51
2022/08/22 12:11:15;;;;;;;1.27;0.10;;;;;;;21.42;100.00;100555.03;5020863;28;20041;-54
2022/08/22 12:13:53;;;;;;;3.35;0.10;;;;;;;21.78;100.00;100550.59;5017963;28;20517;-58
2022/08/22 12:16:27;;;;;;;1.73;0.20;;;;;;;21.78;100.00;100564.09;5018168;28;20115;-53
2022/08/22 12:19:27;;;;;;;0.08;0.00;;;;;;;21.41;100.00;100572.28;5020227;28;20417;-55
2022/08/22 12:21:52;;;;;;;3.70;0.30;;;;;;;21.02;100.00;100570.66;5016487;28;20042;-56